Monday, July 23, 2018, 11:41 AM GMT
Back to Local

CWAF, Ile Rouge Meteorological Aeronautical Presentation System

Location: , , Canada Lat: 48.083
Local Time: 11:41 AM GMT (11:41 GMT) Lon: -69.55
Time Zone: GMT Elev: 16 ft

Show me the last for .
Show Coded

Time T Td Feel RH Dir Speed Gust Alt SLP Vis Weather Sky Remarks
2018-07-23 11:00 53 52 - 98 - Calm - - - 0 None
2018-07-23 10:00 50 49 - 98 - Calm - - - 0 None
2018-07-23 09:00 49 49 - 98 - Calm - - - 0 None
2018-07-23 08:00 49 49 - 98 - Calm - - - 0 None
2018-07-23 07:00 52 52 - 98 - Calm - - - 0 None
2018-07-23 06:00 49 50 - 104 - Calm - - - 0 1-hr Precip Total: 0.02"
2018-07-23 05:00 50 49 - 97 - Calm - - - 0 1-hr Precip Total: 0.04"
2018-07-23 04:00 53 52 - 97 240° 6 - - - 0 1-hr Precip Total: 0.03"
2018-07-23 03:00 51 51 - 96 - Calm - - - 0 1-hr Precip Total: 0.15"
2018-07-23 02:00 52 51 - 96 - Calm - - - 0 1-hr Precip Total: 0.01"
2018-07-23 01:00 54 53 - 95 - Calm - - - 0 None
2018-07-23 00:00 52 51 - 93 - Calm - - - 0 None
2018-07-22 23:00 55 53 - 94 - Calm - - - 0 None
2018-07-22 22:00 54 51 - 88 - Calm - - - 0 None
2018-07-22 21:00 53 50 - 87 - Calm - - - 0 None
2018-07-22 20:00 54 49 - 84 90° 1 - - - 0 None
2018-07-22 19:00 54 49 - 83 - Calm - - - 0 None
2018-07-22 18:00 55 50 - 81 - Calm - - - 0 None
2018-07-22 17:00 53 49 - 87 - Calm - - - 0 None
2018-07-22 16:00 54 49 - 82 250° 1 - - - 0 None
2018-07-22 15:00 53 49 - 84 - Calm - - - 0 None
2018-07-22 14:00 56 51 - 84 - Calm - - - 0 None
2018-07-22 13:00 54 49 - 84 - Calm - - - 0 None
2018-07-22 12:00 54 49 - 83 - Calm - - - 0 None

Support USWX by starting your Amazon purchase here.